Kendrick, Oklahoma
Current Conditions -  °F | °C
As of 7:35 PM on Tuesday 27 Jan 2015 (Local Time) from KCQB Reporting Station
Clear Clear  
Wind Chill: 63°   Ceiling: Unl
Heat Index: 63°   Visibility: 10mi
Dew Point: 41°   Wind: 5mph
Humidity: 45%   Direction: 170°S
Pressure: 30.06"   Gusts: NA
Location:  35.8204°N, 96.7126°W
Report Text: KCQB 280135Z AUTO 17004KT 10SM CLR 17/05 A3006 RMK AO2
Loading
Personal Weather Stations






























Interactive Weather Map New forecast layout! Learn more

10-Day Weather Forecast

Advertisements
Track Severe Weather on mobile